sensor_id;sensor_type;location;lat;lon;timestamp;temperature;humidity
18384;DHT22;9318;48.644;9.456;2022-07-06T00:02:05;18.10;99.90
18384;DHT22;9318;48.644;9.456;2022-07-06T00:04:34;18.00;99.90
18384;DHT22;9318;48.644;9.456;2022-07-06T00:07:01;18.00;99.90
18384;DHT22;9318;48.644;9.456;2022-07-06T00:09:28;17.90;99.90
18384;DHT22;9318;48.644;9.456;2022-07-06T00:11:55;17.80;99.90
18384;DHT22;9318;48.644;9.456;2022-07-06T00:14:22;17.70;99.90
18384;DHT22;9318;48.644;9.456;2022-07-06T00:16:50;17.70;99.90
18384;DHT22;9318;48.644;9.456;2022-07-06T00:19:17;17.60;99.90
18384;DHT22;9318;48.644;9.456;2022-07-06T00:21:46;17.60;99.90
18384;DHT22;9318;48.644;9.456;2022-07-06T00:24:13;17.60;99.90
18384;DHT22;9318;48.644;9.456;2022-07-06T00:26:40;17.60;99.90
18384;DHT22;9318;48.644;9.456;2022-07-06T00:29:07;17.70;99.90
18384;DHT22;9318;48.644;9.456;2022-07-06T00:31:34;17.70;99.90
18384;DHT22;9318;48.644;9.456;2022-07-06T00:34:02;17.70;99.90
18384;DHT22;9318;48.644;9.456;2022-07-06T00:36:29;17.70;99.90
18384;DHT22;9318;48.644;9.456;2022-07-06T00:38:57;17.70;99.90
18384;DHT22;9318;48.644;9.456;2022-07-06T00:41:25;17.80;99.90
18384;DHT22;9318;48.644;9.456;2022-07-06T00:43:53;17.80;99.90
18384;DHT22;9318;48.644;9.456;2022-07-06T00:46:23;17.80;99.90
18384;DHT22;9318;48.644;9.456;2022-07-06T00:48:53;17.70;99.90
18384;DHT22;9318;48.644;9.456;2022-07-06T00:51:22;17.70;99.90
18384;DHT22;9318;48.644;9.456;2022-07-06T00:53:52;17.60;99.90
18384;DHT22;9318;48.644;9.456;2022-07-06T00:56:23;17.50;99.90
18384;DHT22;9318;48.644;9.456;2022-07-06T00:58:52;17.60;99.90
18384;DHT22;9318;48.644;9.456;2022-07-06T01:01:19;17.50;99.90
18384;DHT22;9318;48.644;9.456;2022-07-06T01:03:47;17.50;99.90
18384;DHT22;9318;48.644;9.456;2022-07-06T01:06:14;17.50;99.90
18384;DHT22;9318;48.644;9.456;2022-07-06T01:08:42;17.50;99.90
18384;DHT22;9318;48.644;9.456;2022-07-06T01:11:09;17.50;99.90
18384;DHT22;9318;48.644;9.456;2022-07-06T01:13:38;17.40;99.90
18384;DHT22;9318;48.644;9.456;2022-07-06T01:16:06;17.30;99.90
18384;DHT22;9318;48.644;9.456;2022-07-06T01:18:34;17.20;99.90
18384;DHT22;9318;48.644;9.456;2022-07-06T01:21:10;17.20;99.90
18384;DHT22;9318;48.644;9.456;2022-07-06T01:23:40;17.00;99.90
18384;DHT22;9318;48.644;9.456;2022-07-06T01:26:10;17.00;99.90
18384;DHT22;9318;48.644;9.456;2022-07-06T01:28:37;16.80;99.90
18384;DHT22;9318;48.644;9.456;2022-07-06T01:31:05;16.70;99.90
18384;DHT22;9318;48.644;9.456;2022-07-06T01:33:32;16.70;99.90
18384;DHT22;9318;48.644;9.456;2022-07-06T01:35:59;16.80;99.90
18384;DHT22;9318;48.644;9.456;2022-07-06T01:38:28;16.80;99.90
18384;DHT22;9318;48.644;9.456;2022-07-06T01:40:55;16.70;99.90
18384;DHT22;9318;48.644;9.456;2022-07-06T01:43:22;16.80;99.90
18384;DHT22;9318;48.644;9.456;2022-07-06T01:45:49;16.80;99.90
18384;DHT22;9318;48.644;9.456;2022-07-06T01:48:17;16.80;99.90
18384;DHT22;9318;48.644;9.456;2022-07-06T01:50:44;16.60;99.90
18384;DHT22;9318;48.644;9.456;2022-07-06T01:53:11;16.60;99.90
18384;DHT22;9318;48.644;9.456;2022-07-06T01:55:40;16.50;99.90
18384;DHT22;9318;48.644;9.456;2022-07-06T01:58:07;16.50;99.90
18384;DHT22;9318;48.644;9.456;2022-07-06T02:00:34;16.50;99.90
18384;DHT22;9318;48.644;9.456;2022-07-06T02:03:01;16.50;99.90
18384;DHT22;9318;48.644;9.456;2022-07-06T02:05:28;16.40;99.90
18384;DHT22;9318;48.644;9.456;2022-07-06T02:07:55;16.50;99.90
18384;DHT22;9318;48.644;9.456;2022-07-06T02:10:22;16.60;99.90
18384;DHT22;9318;48.644;9.456;2022-07-06T02:12:51;16.50;99.90
18384;DHT22;9318;48.644;9.456;2022-07-06T02:15:18;16.40;99.90
18384;DHT22;9318;48.644;9.456;2022-07-06T02:17:45;16.20;99.90
18384;DHT22;9318;48.644;9.456;2022-07-06T02:20:13;16.30;99.90
18384;DHT22;9318;48.644;9.456;2022-07-06T02:22:40;16.20;99.90
18384;DHT22;9318;48.644;9.456;2022-07-06T02:25:08;16.30;99.90
18384;DHT22;9318;48.644;9.456;2022-07-06T02:27:35;16.30;99.90
18384;DHT22;9318;48.644;9.456;2022-07-06T02:30:05;16.30;99.90
18384;DHT22;9318;48.644;9.456;2022-07-06T02:32:33;16.30;99.90
18384;DHT22;9318;48.644;9.456;2022-07-06T02:35:00;16.30;99.90
18384;DHT22;9318;48.644;9.456;2022-07-06T02:37:27;16.10;99.90
18384;DHT22;9318;48.644;9.456;2022-07-06T02:39:54;16.00;99.90
18384;DHT22;9318;48.644;9.456;2022-07-06T02:42:21;16.00;99.90
18384;DHT22;9318;48.644;9.456;2022-07-06T02:44:49;15.80;99.90
18384;DHT22;9318;48.644;9.456;2022-07-06T02:47:17;15.80;99.90
18384;DHT22;9318;48.644;9.456;2022-07-06T02:49:44;15.80;99.90
18384;DHT22;9318;48.644;9.456;2022-07-06T02:52:12;15.80;99.90
18384;DHT22;9318;48.644;9.456;2022-07-06T02:54:39;15.90;99.90
18384;DHT22;9318;48.644;9.456;2022-07-06T02:57:06;15.80;99.90
18384;DHT22;9318;48.644;9.456;2022-07-06T02:59:33;15.80;99.90
18384;DHT22;9318;48.644;9.456;2022-07-06T03:02:00;15.90;99.90
18384;DHT22;9318;48.644;9.456;2022-07-06T03:04:29;16.00;99.90
18384;DHT22;9318;48.644;9.456;2022-07-06T03:06:56;16.10;99.90
18384;DHT22;9318;48.644;9.456;2022-07-06T03:09:24;16.00;99.90
18384;DHT22;9318;48.644;9.456;2022-07-06T03:11:51;16.00;99.90
18384;DHT22;9318;48.644;9.456;2022-07-06T03:14:19;16.10;99.90
18384;DHT22;9318;48.644;9.456;2022-07-06T03:16:46;16.00;99.90
18384;DHT22;9318;48.644;9.456;2022-07-06T03:19:13;16.10;99.90
18384;DHT22;9318;48.644;9.456;2022-07-06T03:21:42;16.10;99.90
18384;DHT22;9318;48.644;9.456;2022-07-06T03:24:09;16.00;99.90
18384;DHT22;9318;48.644;9.456;2022-07-06T03:26:36;15.90;99.90
18384;DHT22;9318;48.644;9.456;2022-07-06T03:29:03;15.90;99.90
18384;DHT22;9318;48.644;9.456;2022-07-06T03:31:31;15.80;99.90
18384;DHT22;9318;48.644;9.456;2022-07-06T03:33:58;15.60;99.90
18384;DHT22;9318;48.644;9.456;2022-07-06T03:36:25;15.60;99.90
18384;DHT22;9318;48.644;9.456;2022-07-06T03:38:53;15.60;99.90
18384;DHT22;9318;48.644;9.456;2022-07-06T03:41:21;15.60;99.90
18384;DHT22;9318;48.644;9.456;2022-07-06T03:43:48;15.70;99.90
18384;DHT22;9318;48.644;9.456;2022-07-06T03:46:15;15.80;99.90
18384;DHT22;9318;48.644;9.456;2022-07-06T03:48:42;15.90;99.90
18384;DHT22;9318;48.644;9.456;2022-07-06T03:51:09;15.90;99.90
18384;DHT22;9318;48.644;9.456;2022-07-06T03:53:37;16.00;99.90
18384;DHT22;9318;48.644;9.456;2022-07-06T03:56:06;16.00;99.90
18384;DHT22;9318;48.644;9.456;2022-07-06T03:58:50;16.00;99.90
18384;DHT22;9318;48.644;9.456;2022-07-06T04:01:18;15.80;99.90
18384;DHT22;9318;48.644;9.456;2022-07-06T04:03:45;15.70;99.90
18384;DHT22;9318;48.644;9.456;2022-07-06T04:06:12;15.70;99.90
18384;DHT22;9318;48.644;9.456;2022-07-06T04:08:40;15.80;99.90
18384;DHT22;9318;48.644;9.456;2022-07-06T04:11:09;15.80;99.90
18384;DHT22;9318;48.644;9.456;2022-07-06T04:13:36;15.90;99.90
18384;DHT22;9318;48.644;9.456;2022-07-06T04:16:05;16.00;99.90
18384;DHT22;9318;48.644;9.456;2022-07-06T04:18:32;16.00;99.90
18384;DHT22;9318;48.644;9.456;2022-07-06T04:20:59;16.00;99.90
18384;DHT22;9318;48.644;9.456;2022-07-06T04:23:27;16.00;99.90
18384;DHT22;9318;48.644;9.456;2022-07-06T04:25:55;16.10;99.90
18384;DHT22;9318;48.644;9.456;2022-07-06T04:28:23;16.00;99.90
18384;DHT22;9318;48.644;9.456;2022-07-06T04:30:50;16.00;99.90
18384;DHT22;9318;48.644;9.456;2022-07-06T04:33:18;16.00;99.90
18384;DHT22;9318;48.644;9.456;2022-07-06T04:35:45;16.10;99.90
18384;DHT22;9318;48.644;9.456;2022-07-06T04:38:12;16.10;99.90
18384;DHT22;9318;48.644;9.456;2022-07-06T04:40:40;16.10;99.90
18384;DHT22;9318;48.644;9.456;2022-07-06T04:43:07;16.20;99.90
18384;DHT22;9318;48.644;9.456;2022-07-06T04:45:35;16.20;99.90
18384;DHT22;9318;48.644;9.456;2022-07-06T04:48:03;16.30;99.90
18384;DHT22;9318;48.644;9.456;2022-07-06T04:50:30;16.40;99.90
18384;DHT22;9318;48.644;9.456;2022-07-06T04:52:58;16.40;99.90
18384;DHT22;9318;48.644;9.456;2022-07-06T04:55:26;16.60;99.90
18384;DHT22;9318;48.644;9.456;2022-07-06T04:57:53;16.70;99.90
18384;DHT22;9318;48.644;9.456;2022-07-06T05:00:20;16.80;99.90
18384;DHT22;9318;48.644;9.456;2022-07-06T05:02:50;16.90;99.90
18384;DHT22;9318;48.644;9.456;2022-07-06T05:05:17;16.90;99.90
18384;DHT22;9318;48.644;9.456;2022-07-06T05:07:44;16.90;99.90
18384;DHT22;9318;48.644;9.456;2022-07-06T05:10:13;17.00;99.90
18384;DHT22;9318;48.644;9.456;2022-07-06T05:12:40;16.90;99.90
18384;DHT22;9318;48.644;9.456;2022-07-06T05:15:08;17.00;99.90
18384;DHT22;9318;48.644;9.456;2022-07-06T05:17:36;16.90;99.90
18384;DHT22;9318;48.644;9.456;2022-07-06T05:20:07;16.90;99.90
18384;DHT22;9318;48.644;9.456;2022-07-06T05:22:34;16.80;99.90
18384;DHT22;9318;48.644;9.456;2022-07-06T05:25:01;16.80;99.90
18384;DHT22;9318;48.644;9.456;2022-07-06T05:27:28;16.70;99.90
18384;DHT22;9318;48.644;9.456;2022-07-06T05:29:55;16.80;99.90
18384;DHT22;9318;48.644;9.456;2022-07-06T05:32:23;16.80;99.90
18384;DHT22;9318;48.644;9.456;2022-07-06T05:34:50;16.80;99.90
18384;DHT22;9318;48.644;9.456;2022-07-06T05:37:19;16.90;99.90
18384;DHT22;9318;48.644;9.456;2022-07-06T05:39:46;17.00;99.90
18384;DHT22;9318;48.644;9.456;2022-07-06T05:42:15;17.00;99.90
18384;DHT22;9318;48.644;9.456;2022-07-06T05:44:42;17.00;99.90
18384;DHT22;9318;48.644;9.456;2022-07-06T05:47:09;17.00;99.90
18384;DHT22;9318;48.644;9.456;2022-07-06T05:49:54;17.00;99.90
18384;DHT22;9318;48.644;9.456;2022-07-06T05:52:42;17.10;99.90
18384;DHT22;9318;48.644;9.456;2022-07-06T05:55:11;17.10;99.90
18384;DHT22;9318;48.644;9.456;2022-07-06T05:57:38;17.10;99.90
18384;DHT22;9318;48.644;9.456;2022-07-06T06:00:08;17.20;99.90
18384;DHT22;9318;48.644;9.456;2022-07-06T06:02:39;17.30;99.90
18384;DHT22;9318;48.644;9.456;2022-07-06T06:05:08;17.30;99.90
18384;DHT22;9318;48.644;9.456;2022-07-06T06:07:35;17.40;99.90
18384;DHT22;9318;48.644;9.456;2022-07-06T06:10:06;17.50;99.90
18384;DHT22;9318;48.644;9.456;2022-07-06T06:12:34;17.70;99.90
18384;DHT22;9318;48.644;9.456;2022-07-06T06:15:01;17.80;99.90
18384;DHT22;9318;48.644;9.456;2022-07-06T06:17:29;18.00;99.90
18384;DHT22;9318;48.644;9.456;2022-07-06T06:19:57;18.10;99.90
18384;DHT22;9318;48.644;9.456;2022-07-06T06:22:24;18.10;99.90
18384;DHT22;9318;48.644;9.456;2022-07-06T06:24:52;18.20;99.90
18384;DHT22;9318;48.644;9.456;2022-07-06T06:27:20;18.20;99.90
18384;DHT22;9318;48.644;9.456;2022-07-06T06:29:48;18.00;99.90
18384;DHT22;9318;48.644;9.456;2022-07-06T06:32:15;18.00;99.90
18384;DHT22;9318;48.644;9.456;2022-07-06T06:34:42;18.00;99.90
18384;DHT22;9318;48.644;9.456;2022-07-06T06:37:10;18.00;99.90
18384;DHT22;9318;48.644;9.456;2022-07-06T06:39:37;18.00;99.90
18384;DHT22;9318;48.644;9.456;2022-07-06T06:42:05;18.10;99.90
18384;DHT22;9318;48.644;9.456;2022-07-06T06:44:34;18.20;99.90
18384;DHT22;9318;48.644;9.456;2022-07-06T06:47:01;18.20;99.90
18384;DHT22;9318;48.644;9.456;2022-07-06T06:49:28;18.30;99.90
18384;DHT22;9318;48.644;9.456;2022-07-06T06:51:56;18.30;99.90
18384;DHT22;9318;48.644;9.456;2022-07-06T06:54:23;18.40;99.90
18384;DHT22;9318;48.644;9.456;2022-07-06T06:56:50;18.60;99.90
18384;DHT22;9318;48.644;9.456;2022-07-06T06:59:18;18.60;99.90
18384;DHT22;9318;48.644;9.456;2022-07-06T07:01:46;18.70;99.90
18384;DHT22;9318;48.644;9.456;2022-07-06T07:04:14;18.70;99.90
18384;DHT22;9318;48.644;9.456;2022-07-06T07:06:41;18.70;99.90
18384;DHT22;9318;48.644;9.456;2022-07-06T07:09:08;18.60;99.90
18384;DHT22;9318;48.644;9.456;2022-07-06T07:11:36;18.60;99.90
18384;DHT22;9318;48.644;9.456;2022-07-06T07:14:03;18.70;99.90
18384;DHT22;9318;48.644;9.456;2022-07-06T07:16:30;18.80;99.90
18384;DHT22;9318;48.644;9.456;2022-07-06T07:18:59;18.90;99.90
18384;DHT22;9318;48.644;9.456;2022-07-06T07:21:26;19.00;99.90
18384;DHT22;9318;48.644;9.456;2022-07-06T07:23:53;19.00;99.90
18384;DHT22;9318;48.644;9.456;2022-07-06T07:26:21;19.10;99.90
18384;DHT22;9318;48.644;9.456;2022-07-06T07:28:48;19.10;99.90
18384;DHT22;9318;48.644;9.456;2022-07-06T07:31:15;19.10;99.90
18384;DHT22;9318;48.644;9.456;2022-07-06T07:33:42;19.20;99.90
18384;DHT22;9318;48.644;9.456;2022-07-06T07:36:11;19.30;99.90
18384;DHT22;9318;48.644;9.456;2022-07-06T07:38:38;19.30;99.90
18384;DHT22;9318;48.644;9.456;2022-07-06T07:41:06;19.30;99.90
18384;DHT22;9318;48.644;9.456;2022-07-06T07:43:33;19.20;99.90
18384;DHT22;9318;48.644;9.456;2022-07-06T07:46:00;19.20;99.90
18384;DHT22;9318;48.644;9.456;2022-07-06T07:48:27;19.30;99.90
18384;DHT22;9318;48.644;9.456;2022-07-06T07:50:55;19.40;99.90
18384;DHT22;9318;48.644;9.456;2022-07-06T07:53:23;19.50;99.90
18384;DHT22;9318;48.644;9.456;2022-07-06T07:55:50;19.60;99.90
18384;DHT22;9318;48.644;9.456;2022-07-06T07:58:18;19.70;99.90
18384;DHT22;9318;48.644;9.456;2022-07-06T08:00:45;19.60;99.90
18384;DHT22;9318;48.644;9.456;2022-07-06T08:03:12;19.80;99.90
18384;DHT22;9318;48.644;9.456;2022-07-06T08:05:40;19.80;99.90
18384;DHT22;9318;48.644;9.456;2022-07-06T08:08:07;19.80;99.90
18384;DHT22;9318;48.644;9.456;2022-07-06T08:10:36;19.90;99.90
18384;DHT22;9318;48.644;9.456;2022-07-06T08:13:03;20.10;99.90
18384;DHT22;9318;48.644;9.456;2022-07-06T08:15:32;20.20;99.90
18384;DHT22;9318;48.644;9.456;2022-07-06T08:18:00;20.30;99.90
18384;DHT22;9318;48.644;9.456;2022-07-06T08:20:27;20.40;99.90
18384;DHT22;9318;48.644;9.456;2022-07-06T08:22:55;20.50;99.90
18384;DHT22;9318;48.644;9.456;2022-07-06T08:25:22;20.50;99.90
18384;DHT22;9318;48.644;9.456;2022-07-06T08:27:51;20.60;99.90
18384;DHT22;9318;48.644;9.456;2022-07-06T08:30:18;20.70;99.90
18384;DHT22;9318;48.644;9.456;2022-07-06T08:32:45;20.80;99.90
18384;DHT22;9318;48.644;9.456;2022-07-06T08:35:13;20.80;99.90
18384;DHT22;9318;48.644;9.456;2022-07-06T08:37:41;20.80;99.90
18384;DHT22;9318;48.644;9.456;2022-07-06T08:40:09;20.90;99.90
18384;DHT22;9318;48.644;9.456;2022-07-06T08:42:37;20.90;99.90
18384;DHT22;9318;48.644;9.456;2022-07-06T08:45:07;20.90;99.90
18384;DHT22;9318;48.644;9.456;2022-07-06T08:47:36;21.00;99.90
18384;DHT22;9318;48.644;9.456;2022-07-06T08:50:05;21.10;99.90
18384;DHT22;9318;48.644;9.456;2022-07-06T08:52:34;21.20;99.90
18384;DHT22;9318;48.644;9.456;2022-07-06T08:55:03;21.20;99.90
18384;DHT22;9318;48.644;9.456;2022-07-06T08:57:30;21.10;99.90
18384;DHT22;9318;48.644;9.456;2022-07-06T08:59:57;21.20;99.90
18384;DHT22;9318;48.644;9.456;2022-07-06T09:02:27;21.30;99.90
18384;DHT22;9318;48.644;9.456;2022-07-06T09:04:55;21.50;99.90
18384;DHT22;9318;48.644;9.456;2022-07-06T09:07:25;21.60;99.90
18384;DHT22;9318;48.644;9.456;2022-07-06T09:09:55;21.70;99.90
18384;DHT22;9318;48.644;9.456;2022-07-06T09:12:22;21.70;99.90
18384;DHT22;9318;48.644;9.456;2022-07-06T09:14:54;21.80;99.90
18384;DHT22;9318;48.644;9.456;2022-07-06T09:17:27;22.00;99.90
18384;DHT22;9318;48.644;9.456;2022-07-06T09:19:56;22.00;99.90
18384;DHT22;9318;48.644;9.456;2022-07-06T09:22:28;22.10;99.90
18384;DHT22;9318;48.644;9.456;2022-07-06T09:25:03;22.10;99.90
18384;DHT22;9318;48.644;9.456;2022-07-06T09:27:31;22.30;99.90
18384;DHT22;9318;48.644;9.456;2022-07-06T09:30:00;22.40;99.90
18384;DHT22;9318;48.644;9.456;2022-07-06T09:32:30;22.50;99.90
18384;DHT22;9318;48.644;9.456;2022-07-06T09:34:58;22.60;99.90
18384;DHT22;9318;48.644;9.456;2022-07-06T09:37:29;22.70;99.90
18384;DHT22;9318;48.644;9.456;2022-07-06T09:39:56;22.90;99.90
18384;DHT22;9318;48.644;9.456;2022-07-06T09:42:25;23.10;99.70
18384;DHT22;9318;48.644;9.456;2022-07-06T09:44:53;23.30;99.00
18384;DHT22;9318;48.644;9.456;2022-07-06T09:47:20;23.70;99.50
18384;DHT22;9318;48.644;9.456;2022-07-06T09:49:49;23.80;97.70
18384;DHT22;9318;48.644;9.456;2022-07-06T09:52:18;24.20;98.30
18384;DHT22;9318;48.644;9.456;2022-07-06T09:54:48;24.90;97.60
18384;DHT22;9318;48.644;9.456;2022-07-06T09:57:16;25.60;95.60
18384;DHT22;9318;48.644;9.456;2022-07-06T09:59:50;26.10;95.30
18384;DHT22;9318;48.644;9.456;2022-07-06T10:02:20;26.50;94.10
18384;DHT22;9318;48.644;9.456;2022-07-06T10:04:50;26.70;93.10
18384;DHT22;9318;48.644;9.456;2022-07-06T10:07:19;26.70;93.10
18384;DHT22;9318;48.644;9.456;2022-07-06T10:09:48;26.10;92.00
18384;DHT22;9318;48.644;9.456;2022-07-06T10:12:17;25.90;92.70
18384;DHT22;9318;48.644;9.456;2022-07-06T10:14:47;26.30;93.30
18384;DHT22;9318;48.644;9.456;2022-07-06T10:17:15;26.80;93.00
18384;DHT22;9318;48.644;9.456;2022-07-06T10:19:44;27.20;91.80
18384;DHT22;9318;48.644;9.456;2022-07-06T10:22:14;27.30;90.00
18384;DHT22;9318;48.644;9.456;2022-07-06T10:24:41;27.00;88.30
18384;DHT22;9318;48.644;9.456;2022-07-06T10:27:10;27.40;90.20
18384;DHT22;9318;48.644;9.456;2022-07-06T10:29:37;27.70;89.20
18384;DHT22;9318;48.644;9.456;2022-07-06T10:32:06;27.90;89.30
18384;DHT22;9318;48.644;9.456;2022-07-06T10:34:34;28.10;87.20
18384;DHT22;9318;48.644;9.456;2022-07-06T10:37:03;28.10;86.50
18384;DHT22;9318;48.644;9.456;2022-07-06T10:39:35;27.60;85.50
18384;DHT22;9318;48.644;9.456;2022-07-06T10:42:48;27.20;87.00
18384;DHT22;9318;48.644;9.456;2022-07-06T10:45:49;26.80;86.80
18384;DHT22;9318;48.644;9.456;2022-07-06T10:48:18;26.80;87.30
18384;DHT22;9318;48.644;9.456;2022-07-06T10:50:49;26.90;86.10
18384;DHT22;9318;48.644;9.456;2022-07-06T10:53:17;27.10;87.10
18384;DHT22;9318;48.644;9.456;2022-07-06T10:55:50;27.10;85.20
18384;DHT22;9318;48.644;9.456;2022-07-06T11:01:13;26.60;84.90
18384;DHT22;9318;48.644;9.456;2022-07-06T11:03:42;26.60;86.70
18384;DHT22;9318;48.644;9.456;2022-07-06T11:06:12;26.60;86.70
18384;DHT22;9318;48.644;9.456;2022-07-06T11:08:53;26.60;88.30
18384;DHT22;9318;48.644;9.456;2022-07-06T11:11:24;26.60;87.60
18384;DHT22;9318;48.644;9.456;2022-07-06T11:13:55;26.40;88.70
18384;DHT22;9318;48.644;9.456;2022-07-06T11:16:23;26.10;88.40
18384;DHT22;9318;48.644;9.456;2022-07-06T11:19:10;26.00;90.00
18384;DHT22;9318;48.644;9.456;2022-07-06T11:21:44;26.00;89.00
18384;DHT22;9318;48.644;9.456;2022-07-06T11:24:13;26.10;88.80
18384;DHT22;9318;48.644;9.456;2022-07-06T11:26:44;25.90;85.20
18384;DHT22;9318;48.644;9.456;2022-07-06T11:29:13;26.10;88.30
18384;DHT22;9318;48.644;9.456;2022-07-06T11:31:41;26.30;89.20
18384;DHT22;9318;48.644;9.456;2022-07-06T11:34:11;26.60;88.10
18384;DHT22;9318;48.644;9.456;2022-07-06T11:36:40;26.70;87.60
18384;DHT22;9318;48.644;9.456;2022-07-06T11:39:08;26.70;86.90
18384;DHT22;9318;48.644;9.456;2022-07-06T11:41:35;26.90;85.20
18384;DHT22;9318;48.644;9.456;2022-07-06T11:44:05;27.10;85.50
18384;DHT22;9318;48.644;9.456;2022-07-06T11:46:33;27.00;85.10
18384;DHT22;9318;48.644;9.456;2022-07-06T11:49:02;26.80;83.80
18384;DHT22;9318;48.644;9.456;2022-07-06T11:51:31;26.50;87.00
18384;DHT22;9318;48.644;9.456;2022-07-06T11:54:00;26.30;83.90
18384;DHT22;9318;48.644;9.456;2022-07-06T11:56:28;26.10;83.50
18384;DHT22;9318;48.644;9.456;2022-07-06T11:58:57;26.40;86.00
18384;DHT22;9318;48.644;9.456;2022-07-06T12:01:27;26.80;84.70
18384;DHT22;9318;48.644;9.456;2022-07-06T12:03:58;27.20;86.10
18384;DHT22;9318;48.644;9.456;2022-07-06T12:06:27;27.40;84.70
18384;DHT22;9318;48.644;9.456;2022-07-06T12:08:56;27.70;82.30
18384;DHT22;9318;48.644;9.456;2022-07-06T12:11:25;28.10;81.70
18384;DHT22;9318;48.644;9.456;2022-07-06T12:13:54;28.40;81.50
18384;DHT22;9318;48.644;9.456;2022-07-06T12:16:28;28.70;80.70
18384;DHT22;9318;48.644;9.456;2022-07-06T12:18:57;28.90;81.40
18384;DHT22;9318;48.644;9.456;2022-07-06T12:21:25;28.90;77.60
18384;DHT22;9318;48.644;9.456;2022-07-06T12:23:54;28.90;78.50
18384;DHT22;9318;48.644;9.456;2022-07-06T12:26:23;28.80;78.60
18384;DHT22;9318;48.644;9.456;2022-07-06T12:29:01;28.80;78.50
18384;DHT22;9318;48.644;9.456;2022-07-06T12:31:34;28.90;78.10
18384;DHT22;9318;48.644;9.456;2022-07-06T12:34:13;29.00;77.30
18384;DHT22;9318;48.644;9.456;2022-07-06T12:36:44;28.50;77.10
18384;DHT22;9318;48.644;9.456;2022-07-06T12:39:12;28.70;78.10
18384;DHT22;9318;48.644;9.456;2022-07-06T12:41:45;28.80;78.40
18384;DHT22;9318;48.644;9.456;2022-07-06T12:44:13;28.60;77.30
18384;DHT22;9318;48.644;9.456;2022-07-06T12:46:41;28.30;78.40
18384;DHT22;9318;48.644;9.456;2022-07-06T12:49:15;28.00;80.30
18384;DHT22;9318;48.644;9.456;2022-07-06T12:51:58;28.20;78.00
18384;DHT22;9318;48.644;9.456;2022-07-06T12:54:27;28.70;77.50
18384;DHT22;9318;48.644;9.456;2022-07-06T12:57:07;28.90;76.10
18384;DHT22;9318;48.644;9.456;2022-07-06T12:59:37;29.40;76.80
18384;DHT22;9318;48.644;9.456;2022-07-06T13:02:05;29.50;75.20
18384;DHT22;9318;48.644;9.456;2022-07-06T13:04:35;29.40;76.20
18384;DHT22;9318;48.644;9.456;2022-07-06T13:07:04;29.10;77.50
18384;DHT22;9318;48.644;9.456;2022-07-06T13:09:31;28.60;76.20
18384;DHT22;9318;48.644;9.456;2022-07-06T13:11:58;28.40;78.80
18384;DHT22;9318;48.644;9.456;2022-07-06T13:14:26;28.20;77.40
18384;DHT22;9318;48.644;9.456;2022-07-06T13:16:53;28.10;78.70
18384;DHT22;9318;48.644;9.456;2022-07-06T13:19:21;28.00;78.20
18384;DHT22;9318;48.644;9.456;2022-07-06T13:21:49;27.90;79.80
18384;DHT22;9318;48.644;9.456;2022-07-06T13:24:17;27.60;80.20
18384;DHT22;9318;48.644;9.456;2022-07-06T13:26:44;27.90;81.20
18384;DHT22;9318;48.644;9.456;2022-07-06T13:29:12;28.20;79.40
18384;DHT22;9318;48.644;9.456;2022-07-06T13:31:40;28.40;79.70
18384;DHT22;9318;48.644;9.456;2022-07-06T13:34:08;28.60;78.50
18384;DHT22;9318;48.644;9.456;2022-07-06T13:36:35;28.80;78.40
18384;DHT22;9318;48.644;9.456;2022-07-06T13:39:05;28.90;78.10
18384;DHT22;9318;48.644;9.456;2022-07-06T13:41:32;29.00;78.60
18384;DHT22;9318;48.644;9.456;2022-07-06T13:44:00;29.00;78.10
18384;DHT22;9318;48.644;9.456;2022-07-06T13:46:27;28.80;76.90
18384;DHT22;9318;48.644;9.456;2022-07-06T13:48:55;28.70;77.90
18384;DHT22;9318;48.644;9.456;2022-07-06T13:51:23;28.40;78.30
18384;DHT22;9318;48.644;9.456;2022-07-06T13:53:52;28.10;78.10
18384;DHT22;9318;48.644;9.456;2022-07-06T13:56:21;28.20;79.20
18384;DHT22;9318;48.644;9.456;2022-07-06T13:58:49;28.20;77.90
18384;DHT22;9318;48.644;9.456;2022-07-06T14:01:16;28.20;78.40
18384;DHT22;9318;48.644;9.456;2022-07-06T14:03:43;28.00;77.80
18384;DHT22;9318;48.644;9.456;2022-07-06T14:06:11;27.80;78.10
18384;DHT22;9318;48.644;9.456;2022-07-06T14:08:39;27.60;79.60
18384;DHT22;9318;48.644;9.456;2022-07-06T14:11:08;27.60;80.40
18384;DHT22;9318;48.644;9.456;2022-07-06T14:13:38;27.70;79.40
18384;DHT22;9318;48.644;9.456;2022-07-06T14:16:05;27.90;79.60
18384;DHT22;9318;48.644;9.456;2022-07-06T14:18:33;27.90;79.70
18384;DHT22;9318;48.644;9.456;2022-07-06T14:21:00;28.10;78.50
18384;DHT22;9318;48.644;9.456;2022-07-06T14:23:29;28.20;79.30
18384;DHT22;9318;48.644;9.456;2022-07-06T14:25:57;28.70;77.70
18384;DHT22;9318;48.644;9.456;2022-07-06T14:28:25;29.00;74.60
18384;DHT22;9318;48.644;9.456;2022-07-06T14:30:54;29.50;74.70
18384;DHT22;9318;48.644;9.456;2022-07-06T14:33:21;30.00;72.50
18384;DHT22;9318;48.644;9.456;2022-07-06T14:35:50;30.90;72.20
18384;DHT22;9318;48.644;9.456;2022-07-06T14:38:18;31.60;69.80
18384;DHT22;9318;48.644;9.456;2022-07-06T14:40:46;31.80;69.10
18384;DHT22;9318;48.644;9.456;2022-07-06T14:43:16;31.50;68.90
18384;DHT22;9318;48.644;9.456;2022-07-06T14:45:44;31.30;68.20
18384;DHT22;9318;48.644;9.456;2022-07-06T14:48:13;30.90;68.40
18384;DHT22;9318;48.644;9.456;2022-07-06T14:50:40;30.50;70.30
18384;DHT22;9318;48.644;9.456;2022-07-06T14:53:08;30.00;72.40
18384;DHT22;9318;48.644;9.456;2022-07-06T14:55:36;29.30;71.50
18384;DHT22;9318;48.644;9.456;2022-07-06T14:58:03;28.70;73.80
18384;DHT22;9318;48.644;9.456;2022-07-06T15:00:30;28.20;74.40
18384;DHT22;9318;48.644;9.456;2022-07-06T15:02:58;27.80;75.80
18384;DHT22;9318;48.644;9.456;2022-07-06T15:05:27;27.40;75.40
18384;DHT22;9318;48.644;9.456;2022-07-06T15:07:54;27.50;76.20
18384;DHT22;9318;48.644;9.456;2022-07-06T15:10:21;28.40;77.60
18384;DHT22;9318;48.644;9.456;2022-07-06T15:12:49;29.80;75.30
18384;DHT22;9318;48.644;9.456;2022-07-06T15:15:16;31.40;70.20
18384;DHT22;9318;48.644;9.456;2022-07-06T15:17:43;33.00;66.10
18384;DHT22;9318;48.644;9.456;2022-07-06T15:20:11;34.30;63.40
18384;DHT22;9318;48.644;9.456;2022-07-06T15:22:40;35.30;60.30
18384;DHT22;9318;48.644;9.456;2022-07-06T15:25:09;36.00;59.80
18384;DHT22;9318;48.644;9.456;2022-07-06T15:27:36;36.80;56.10
18384;DHT22;9318;48.644;9.456;2022-07-06T15:30:05;37.30;56.30
18384;DHT22;9318;48.644;9.456;2022-07-06T15:32:32;37.90;55.20
18384;DHT22;9318;48.644;9.456;2022-07-06T15:35:00;38.30;53.50
18384;DHT22;9318;48.644;9.456;2022-07-06T15:37:30;38.60;51.80
18384;DHT22;9318;48.644;9.456;2022-07-06T15:39:59;38.70;50.80
18384;DHT22;9318;48.644;9.456;2022-07-06T15:42:27;37.50;52.80
18384;DHT22;9318;48.644;9.456;2022-07-06T15:44:54;37.30;52.50
18384;DHT22;9318;48.644;9.456;2022-07-06T15:47:22;37.30;52.30
18384;DHT22;9318;48.644;9.456;2022-07-06T15:49:50;37.20;51.80
18384;DHT22;9318;48.644;9.456;2022-07-06T15:52:17;36.50;52.20
18384;DHT22;9318;48.644;9.456;2022-07-06T15:54:44;36.30;53.80
18384;DHT22;9318;48.644;9.456;2022-07-06T15:57:14;35.50;52.90